createdAt,value
2023-04-26T00:00:15.905Z,35.74
2023-04-26T00:02:44.348Z,36.08
2023-04-26T00:05:12.966Z,35.57
2023-04-26T00:07:42.595Z,35.90
2023-04-26T00:10:12.719Z,36.00
2023-04-26T00:12:42.700Z,35.96
2023-04-26T00:15:12.018Z,35.78
2023-04-26T00:17:41.293Z,35.51
2023-04-26T00:20:11.980Z,35.57
2023-04-26T00:22:40.960Z,35.35
2023-04-26T00:25:12.657Z,35.69
2023-04-26T00:27:41.076Z,35.50
2023-04-26T00:30:11.273Z,35.65
2023-04-26T00:32:39.703Z,35.66
2023-04-26T00:35:09.388Z,35.24
2023-04-26T00:37:37.784Z,35.24
2023-04-26T00:40:07.865Z,35.46
2023-04-26T00:42:37.685Z,35.38
2023-04-26T00:45:07.496Z,35.53
2023-04-26T00:47:35.917Z,35.13
2023-04-26T00:50:04.707Z,35.17
2023-04-26T00:52:33.172Z,35.22
2023-04-26T00:55:01.676Z,35.42
2023-04-26T00:57:30.037Z,35.46
2023-04-26T00:59:59.783Z,35.13
2023-04-26T01:02:28.335Z,35.31
2023-04-26T01:04:56.806Z,35.10
2023-04-26T01:07:25.345Z,35.00
2023-04-26T01:09:53.760Z,35.22
2023-04-26T01:12:22.089Z,34.83
2023-04-26T01:14:50.840Z,35.11
2023-04-26T01:17:21.177Z,34.96
2023-04-26T01:19:49.817Z,34.99
2023-04-26T01:22:18.251Z,34.93
2023-04-26T01:24:49.948Z,34.97
2023-04-26T01:27:18.377Z,34.76
2023-04-26T01:29:47.682Z,34.84
2023-04-26T01:32:16.236Z,34.83
2023-04-26T01:34:44.536Z,34.88
2023-04-26T01:37:12.941Z,34.76
2023-04-26T01:39:41.417Z,34.63
2023-04-26T01:42:11.098Z,34.89
2023-04-26T01:44:39.548Z,34.53
2023-04-26T01:47:07.911Z,34.71
2023-04-26T01:49:36.490Z,34.52
2023-04-26T01:52:05.602Z,34.50
2023-04-26T01:54:34.208Z,34.63
2023-04-26T01:57:02.730Z,34.27
2023-04-26T01:59:32.515Z,34.58
2023-04-26T02:02:01.019Z,34.44
2023-04-26T02:04:30.062Z,34.24
2023-04-26T02:06:58.492Z,33.93
2023-04-26T02:09:26.900Z,34.35
2023-04-26T02:11:55.264Z,34.42
2023-04-26T02:14:23.692Z,34.24
2023-04-26T02:16:53.374Z,34.29
2023-04-26T02:19:21.752Z,34.44
2023-04-26T02:21:57.819Z,34.08
2023-04-26T02:24:26.253Z,33.59
2023-04-26T02:26:55.178Z,33.95
2023-04-26T02:29:36.397Z,33.88
2023-04-26T02:32:13.169Z,34.29
2023-04-26T02:34:41.730Z,34.36
2023-04-26T02:37:10.164Z,34.12
2023-04-26T02:39:38.589Z,34.22
2023-04-26T02:42:10.148Z,33.65
2023-04-26T02:44:39.692Z,33.41
2023-04-26T02:47:08.368Z,34.00
2023-04-26T02:49:38.164Z,33.76
2023-04-26T02:52:06.600Z,33.58
2023-04-26T02:54:35.019Z,33.40
2023-04-26T02:57:03.808Z,33.41
2023-04-26T02:59:32.598Z,33.61
2023-04-26T03:02:01.004Z,32.98
2023-04-26T03:04:30.276Z,32.63
2023-04-26T03:07:00.026Z,32.92
2023-04-26T03:09:28.392Z,33.19
2023-04-26T03:11:56.764Z,33.36
2023-04-26T03:14:25.174Z,33.59
2023-04-26T03:16:53.742Z,33.17
2023-04-26T03:19:24.088Z,33.57
2023-04-26T03:21:52.410Z,33.49
2023-04-26T03:24:22.134Z,32.77
2023-04-26T03:26:50.557Z,33.63
2023-04-26T03:29:18.942Z,33.11
2023-04-26T03:31:47.386Z,32.96
2023-04-26T03:34:15.768Z,32.83
2023-04-26T03:36:44.198Z,32.59
2023-04-26T03:39:12.633Z,32.31
2023-04-26T03:41:42.391Z,32.21
2023-04-26T03:44:10.802Z,32.70
2023-04-26T03:46:39.186Z,32.99
2023-04-26T03:49:08.713Z,32.46
2023-04-26T03:51:37.076Z,31.94
2023-04-26T03:54:06.478Z,33.00
2023-04-26T03:56:34.832Z,32.82
2023-04-26T03:59:04.678Z,32.43
2023-04-26T04:01:33.141Z,32.43
2023-04-26T04:04:02.067Z,32.40
2023-04-26T04:06:30.990Z,32.23
2023-04-26T04:08:59.400Z,32.68
2023-04-26T04:11:27.699Z,33.18
2023-04-26T04:13:56.190Z,32.91
2023-04-26T04:16:26.233Z,32.46
2023-04-26T04:18:55.269Z,33.12
2023-04-26T04:21:23.712Z,33.63
2023-04-26T04:23:52.059Z,33.51
2023-04-26T04:26:21.112Z,33.70
2023-04-26T04:28:49.569Z,33.32
2023-04-26T04:31:17.986Z,33.72
2023-04-26T04:33:47.700Z,33.26
2023-04-26T04:36:17.869Z,33.70
2023-04-26T04:38:46.314Z,33.56
2023-04-26T04:41:15.240Z,33.54
2023-04-26T04:43:43.927Z,33.38
2023-04-26T04:46:13.325Z,33.42
2023-04-26T04:48:42.165Z,33.47
2023-04-26T04:51:12.448Z,33.59
2023-04-26T04:53:40.871Z,33.31
2023-04-26T04:56:09.924Z,33.66
2023-04-26T04:58:38.397Z,34.03
2023-04-26T05:01:07.192Z,33.44
2023-04-26T05:03:35.847Z,33.60
2023-04-26T05:06:04.451Z,34.19
2023-04-26T05:08:34.217Z,33.93
2023-04-26T05:11:03.064Z,34.33
2023-04-26T05:13:31.431Z,34.43
2023-04-26T05:15:59.825Z,34.17
2023-04-26T05:18:28.224Z,34.29
2023-04-26T05:20:56.638Z,34.77
2023-04-26T05:23:25.035Z,34.57
2023-04-26T05:25:54.851Z,33.06
2023-04-26T05:28:23.286Z,30.44
2023-04-26T05:30:51.626Z,31.25
2023-04-26T05:33:20.112Z,31.03
2023-04-26T05:35:48.499Z,31.29
2023-04-26T05:38:16.898Z,30.56
2023-04-26T05:40:45.488Z,33.89
2023-04-26T05:43:15.228Z,34.29
2023-04-26T05:45:52.940Z,34.14
2023-04-26T05:48:22.213Z,34.94
2023-04-26T05:50:50.697Z,34.54
2023-04-26T05:53:19.232Z,34.41
2023-04-26T05:55:47.769Z,34.37
2023-04-26T05:58:17.638Z,33.03
2023-04-26T06:00:46.153Z,32.72
2023-04-26T06:03:14.765Z,33.05
2023-04-26T06:05:43.396Z,31.47
2023-04-26T06:08:11.828Z,31.41
2023-04-26T06:10:40.273Z,31.06
2023-04-26T06:13:08.747Z,33.04
2023-04-26T06:15:38.514Z,33.51
2023-04-26T06:18:07.269Z,33.92
2023-04-26T06:20:36.187Z,33.79
2023-04-26T06:23:04.812Z,33.70
2023-04-26T06:25:34.082Z,34.28
2023-04-26T06:28:03.777Z,34.36
2023-04-26T06:30:32.132Z,34.03
2023-04-26T06:33:01.924Z,33.98
2023-04-26T06:35:30.420Z,33.98
2023-04-26T06:37:58.790Z,34.28
2023-04-26T06:40:27.187Z,34.23
2023-04-26T06:42:55.735Z,34.24
2023-04-26T06:45:24.174Z,34.06
2023-04-26T06:47:53.177Z,34.30
2023-04-26T06:50:23.056Z,34.32
2023-04-26T06:52:51.584Z,34.02
2023-04-26T06:55:20.191Z,34.24
2023-04-26T06:57:48.524Z,34.09
2023-04-26T07:00:17.965Z,34.39
2023-04-26T07:02:47.041Z,34.27
2023-04-26T07:05:16.289Z,34.21
2023-04-26T07:07:46.178Z,34.40
2023-04-26T07:10:15.153Z,34.29
2023-04-26T07:12:43.538Z,34.43
2023-04-26T07:15:12.769Z,34.51
2023-04-26T07:17:41.321Z,34.55
2023-04-26T07:20:11.528Z,34.13
2023-04-26T07:22:40.335Z,34.20
2023-04-26T07:25:10.823Z,34.38
2023-04-26T07:27:39.290Z,34.54
2023-04-26T07:30:10.261Z,34.35
2023-04-26T07:32:38.793Z,34.47
2023-04-26T07:35:10.580Z,34.47
2023-04-26T07:37:38.958Z,34.50
2023-04-26T07:40:10.891Z,34.31
2023-04-26T07:42:39.258Z,34.67
2023-04-26T07:45:09.727Z,34.74
2023-04-26T07:47:38.241Z,34.45
2023-04-26T07:50:08.425Z,34.67
2023-04-26T07:52:36.980Z,34.34
2023-04-26T07:55:06.077Z,34.62
2023-04-26T07:57:35.850Z,34.81
2023-04-26T08:00:06.818Z,34.93
2023-04-26T08:02:44.722Z,34.67
2023-04-26T08:05:14.462Z,34.88
2023-04-26T08:07:43.119Z,34.92
2023-04-26T08:10:12.453Z,34.99
2023-04-26T08:12:42.726Z,34.89
2023-04-26T08:15:13.275Z,34.99
2023-04-26T08:17:42.058Z,35.17
2023-04-26T08:20:11.843Z,34.75
2023-04-26T08:22:40.312Z,34.79
2023-04-26T08:25:09.817Z,34.85
2023-04-26T08:27:38.177Z,34.67
2023-04-26T08:30:09.674Z,35.00
2023-04-26T08:32:38.493Z,34.85
2023-04-26T08:35:07.908Z,34.57
2023-04-26T08:37:37.935Z,34.86
2023-04-26T08:40:09.952Z,34.66
2023-04-26T08:42:42.312Z,34.71
2023-04-26T08:45:12.508Z,34.86
2023-04-26T08:47:45.340Z,34.54
2023-04-26T08:50:15.060Z,34.79
2023-04-26T08:52:44.593Z,34.74
2023-04-26T08:55:14.593Z,34.72
2023-04-26T08:57:43.649Z,34.77
2023-04-26T09:00:16.088Z,34.93
2023-04-26T09:02:48.752Z,34.67
2023-04-26T09:05:17.269Z,34.96
2023-04-26T09:07:47.012Z,34.76
2023-04-26T09:10:21.308Z,34.63
2023-04-26T09:12:53.242Z,34.65
2023-04-26T09:15:23.711Z,34.79
2023-04-26T09:17:52.668Z,34.57
2023-04-26T09:20:23.819Z,34.81
2023-04-26T09:22:53.180Z,34.73
2023-04-26T09:25:29.066Z,34.57
2023-04-26T09:27:57.608Z,34.48
2023-04-26T09:30:27.537Z,34.36
2023-04-26T09:32:58.010Z,34.67
2023-04-26T09:35:31.577Z,34.50
2023-04-26T09:38:07.923Z,34.74
2023-04-26T09:40:41.077Z,34.40
2023-04-26T09:43:11.724Z,34.75
2023-04-26T09:45:50.286Z,34.51
2023-04-26T09:48:22.445Z,34.72
2023-04-26T09:50:52.652Z,34.73
2023-04-26T09:53:29.188Z,34.45
2023-04-26T09:55:58.237Z,34.59
2023-04-26T09:58:26.820Z,34.64
2023-04-26T10:00:56.644Z,34.54
2023-04-26T10:03:25.379Z,34.31
2023-04-26T10:05:53.990Z,34.69
2023-04-26T10:08:22.470Z,34.38
2023-04-26T10:10:51.462Z,34.29
2023-04-26T10:13:20.868Z,34.46
2023-04-26T10:15:49.993Z,34.65
2023-04-26T10:18:19.909Z,34.65
2023-04-26T10:20:53.190Z,34.32
2023-04-26T10:23:25.520Z,34.56
2023-04-26T10:25:54.100Z,34.32
2023-04-26T10:29:02.560Z,34.07
2023-04-26T10:32:09.808Z,34.22
2023-04-26T10:34:39.662Z,34.20
2023-04-26T10:37:09.617Z,34.14
2023-04-26T10:39:38.160Z,34.23
2023-04-26T10:42:27.357Z,34.39
2023-04-26T10:44:56.689Z,34.42
2023-04-26T10:47:30.588Z,34.46
2023-04-26T10:50:08.841Z,34.42
2023-04-26T10:52:37.996Z,34.57
2023-04-26T10:55:08.042Z,34.32
2023-04-26T10:57:52.411Z,34.24
2023-04-26T11:00:32.923Z,34.38
2023-04-26T11:03:07.192Z,34.50
2023-04-26T11:05:52.512Z,34.42
2023-04-26T11:08:21.944Z,34.33
2023-04-26T11:10:59.539Z,34.30
2023-04-26T11:13:27.956Z,34.23
2023-04-26T11:16:00.659Z,34.22
2023-04-26T11:18:29.343Z,34.27
2023-04-26T11:20:59.248Z,34.08
2023-04-26T11:23:29.398Z,34.36
2023-04-26T11:25:59.508Z,34.02
2023-04-26T11:28:27.936Z,34.12
2023-04-26T11:30:57.440Z,34.28
2023-04-26T11:33:25.876Z,34.22
2023-04-26T11:35:55.836Z,34.32
2023-04-26T11:38:26.041Z,34.44
2023-04-26T11:40:58.639Z,34.21
2023-04-26T11:43:35.441Z,34.08
2023-04-26T11:46:04.044Z,34.39
2023-04-26T11:48:33.571Z,34.35
2023-04-26T11:51:03.863Z,34.09
2023-04-26T11:53:41.038Z,33.86
2023-04-26T11:56:17.282Z,33.89
2023-04-26T11:58:47.525Z,34.19
2023-04-26T12:01:23.480Z,34.01
2023-04-26T12:03:52.933Z,34.23
2023-04-26T12:06:21.998Z,34.23
2023-04-26T12:08:54.888Z,33.95
2023-04-26T12:11:23.308Z,34.44
2023-04-26T12:13:51.718Z,34.19
2023-04-26T12:16:26.288Z,34.17
2023-04-26T12:18:56.995Z,34.37
2023-04-26T12:21:28.136Z,34.18
2023-04-26T12:23:59.661Z,34.17
2023-04-26T12:26:44.821Z,34.27
2023-04-26T12:29:13.484Z,34.09
2023-04-26T12:31:42.117Z,34.36
2023-04-26T12:34:10.811Z,34.20
2023-04-26T12:36:41.289Z,34.15
2023-04-26T12:39:13.810Z,33.95
2023-04-26T12:41:42.272Z,34.08
2023-04-26T12:44:10.735Z,33.91
2023-04-26T12:46:39.386Z,33.84
2023-04-26T12:49:07.950Z,33.82
2023-04-26T12:51:36.403Z,33.81
2023-04-26T12:54:05.098Z,34.15
2023-04-26T12:56:38.074Z,33.89
2023-04-26T12:59:06.639Z,34.08
2023-04-26T13:01:35.090Z,33.88
2023-04-26T13:04:05.973Z,34.10
2023-04-26T13:06:36.460Z,33.91
2023-04-26T13:09:07.939Z,33.93
2023-04-26T13:11:37.780Z,34.21
2023-04-26T13:14:06.967Z,33.94
2023-04-26T13:16:35.505Z,33.82
2023-04-26T13:19:04.120Z,34.09
2023-04-26T13:21:32.803Z,33.99
2023-04-26T13:24:01.339Z,34.09
2023-04-26T13:26:29.759Z,34.29
2023-04-26T13:28:59.716Z,34.15
2023-04-26T13:31:28.266Z,34.31
2023-04-26T13:33:56.864Z,33.91
2023-04-26T13:36:25.296Z,33.89
2023-04-26T13:38:53.726Z,34.18
2023-04-26T13:41:22.507Z,33.86
2023-04-26T13:43:51.500Z,34.12
2023-04-26T13:46:21.248Z,33.93
2023-04-26T13:48:49.691Z,34.16
2023-04-26T13:51:18.211Z,33.90
2023-04-26T13:53:46.683Z,33.89
2023-04-26T13:56:15.126Z,34.24
2023-04-26T13:58:44.100Z,33.96
2023-04-26T14:01:12.498Z,33.98
2023-04-26T14:03:43.017Z,33.85
2023-04-26T14:06:12.549Z,33.81
2023-04-26T14:08:41.008Z,34.15
2023-04-26T14:11:09.408Z,33.77
2023-04-26T14:13:38.141Z,33.92
2023-04-26T14:16:07.234Z,33.88
2023-04-26T14:18:35.808Z,33.91
2023-04-26T14:21:06.142Z,33.74
2023-04-26T14:23:34.472Z,34.04
2023-04-26T14:26:02.894Z,33.92
2023-04-26T14:28:31.217Z,33.86
2023-04-26T14:30:59.687Z,34.08
2023-04-26T14:33:28.147Z,34.13
2023-04-26T14:35:56.644Z,34.39
2023-04-26T14:38:26.654Z,34.26
2023-04-26T14:40:55.141Z,34.29
2023-04-26T14:43:24.039Z,34.71
2023-04-26T14:45:52.575Z,34.22
2023-04-26T14:48:21.150Z,34.29
2023-04-26T14:50:49.575Z,34.25
2023-04-26T14:53:17.981Z,34.06
2023-04-26T14:55:47.856Z,33.95
2023-04-26T14:58:17.249Z,34.31
2023-04-26T15:00:46.680Z,34.20
2023-04-26T15:03:15.249Z,34.38
2023-04-26T15:05:43.785Z,34.36
2023-04-26T15:08:12.234Z,34.14
2023-04-26T15:10:40.708Z,34.38
2023-04-26T15:13:10.827Z,34.28
2023-04-26T15:15:39.495Z,34.28
2023-04-26T15:18:07.917Z,34.39
2023-04-26T15:20:40.204Z,34.44
2023-04-26T15:23:09.035Z,34.83
2023-04-26T15:25:37.651Z,34.75
2023-04-26T15:28:06.199Z,34.91
2023-04-26T15:30:36.124Z,35.12
2023-04-26T15:33:06.771Z,35.18
2023-04-26T15:35:35.383Z,34.91
2023-04-26T15:38:03.784Z,34.74
2023-04-26T15:40:32.248Z,34.96
2023-04-26T15:43:00.711Z,34.69
2023-04-26T15:45:29.153Z,34.93
2023-04-26T15:47:59.119Z,34.95
2023-04-26T15:50:27.551Z,34.97
2023-04-26T15:52:58.264Z,35.10
2023-04-26T15:55:26.655Z,35.10
2023-04-26T15:57:55.007Z,35.67
2023-04-26T16:00:23.602Z,35.12
2023-04-26T16:02:52.219Z,35.54
2023-04-26T16:05:22.175Z,35.04
2023-04-26T16:07:50.694Z,35.32
2023-04-26T16:10:19.909Z,35.25
2023-04-26T16:12:48.333Z,35.29
2023-04-26T16:15:17.005Z,35.22
2023-04-26T16:17:45.557Z,35.33
2023-04-26T16:20:14.111Z,35.37
2023-04-26T16:22:45.244Z,35.46
2023-04-26T16:25:14.003Z,35.13
2023-04-26T16:27:42.370Z,35.74
2023-04-26T16:30:12.309Z,35.79
2023-04-26T16:32:40.862Z,35.90
2023-04-26T16:35:10.590Z,36.09
2023-04-26T16:37:41.068Z,35.99
2023-04-26T16:40:13.548Z,35.95
2023-04-26T16:42:43.542Z,35.78
2023-04-26T16:45:16.145Z,35.96
2023-04-26T16:47:45.263Z,35.65
2023-04-26T16:50:13.734Z,35.44
2023-04-26T16:52:42.180Z,35.70
2023-04-26T16:55:12.279Z,35.48
2023-04-26T16:57:40.815Z,35.42
2023-04-26T17:00:11.780Z,35.66
2023-04-26T17:02:42.104Z,35.65
2023-04-26T17:05:11.245Z,35.16
2023-04-26T17:07:39.746Z,35.18
2023-04-26T17:10:09.396Z,35.40
2023-04-26T17:12:39.452Z,35.45
2023-04-26T17:15:09.771Z,35.04
2023-04-26T17:17:38.262Z,35.28
2023-04-26T17:20:10.781Z,35.21
2023-04-26T17:22:40.764Z,35.16
2023-04-26T17:25:10.292Z,35.12
2023-04-26T17:27:40.030Z,35.01
2023-04-26T17:30:10.017Z,35.16
2023-04-26T17:32:38.593Z,34.92
2023-04-26T17:35:08.412Z,35.17
2023-04-26T17:37:36.878Z,34.82
2023-04-26T17:40:07.807Z,34.98
2023-04-26T17:42:36.253Z,35.14
2023-04-26T17:45:07.961Z,35.07
2023-04-26T17:47:36.569Z,35.18
2023-04-26T17:50:05.531Z,34.82
2023-04-26T17:52:34.236Z,34.94
2023-04-26T17:55:02.675Z,34.98
2023-04-26T17:57:31.238Z,35.14
2023-04-26T18:00:00.249Z,34.68
2023-04-26T18:02:30.189Z,35.03
2023-04-26T18:04:58.824Z,34.72
2023-04-26T18:07:27.376Z,35.20
2023-04-26T18:09:55.898Z,35.02
2023-04-26T18:12:25.383Z,35.22
2023-04-26T18:14:53.834Z,34.92
2023-04-26T18:17:22.332Z,35.34
2023-04-26T18:19:52.335Z,35.00
2023-04-26T18:22:20.954Z,34.96
2023-04-26T18:24:49.444Z,35.17
2023-04-26T18:27:17.867Z,35.07
2023-04-26T18:29:46.450Z,35.27
2023-04-26T18:32:15.166Z,35.11
2023-04-26T18:34:44.210Z,34.85
2023-04-26T18:37:14.486Z,34.83
2023-04-26T18:39:42.911Z,34.77
2023-04-26T18:42:11.381Z,34.87
2023-04-26T18:44:39.879Z,35.14
2023-04-26T18:47:08.522Z,35.00
2023-04-26T18:49:37.006Z,34.67
2023-04-26T18:52:08.903Z,34.69
2023-04-26T18:54:39.508Z,35.13
2023-04-26T18:57:08.477Z,34.69
2023-04-26T18:59:37.102Z,34.95
2023-04-26T19:02:05.584Z,34.90
2023-04-26T19:04:34.371Z,34.58
2023-04-26T19:07:03.620Z,34.54
2023-04-26T19:09:42.819Z,34.69
2023-04-26T19:12:20.639Z,34.58
2023-04-26T19:14:49.091Z,34.79
2023-04-26T19:17:17.481Z,34.84
2023-04-26T19:19:45.975Z,34.81
2023-04-26T19:22:14.573Z,34.92
2023-04-26T19:24:43.022Z,34.50
2023-04-26T19:27:11.662Z,34.72
2023-04-26T19:29:41.511Z,34.89
2023-04-26T19:32:10.161Z,34.55
2023-04-26T19:34:40.764Z,34.50
2023-04-26T19:37:09.453Z,34.61
2023-04-26T19:39:37.899Z,34.20
2023-04-26T19:42:06.757Z,34.39
2023-04-26T19:44:35.319Z,34.53
2023-04-26T19:47:05.715Z,34.58
2023-04-26T19:49:34.245Z,34.63
2023-04-26T19:52:02.906Z,34.12
2023-04-26T19:54:32.312Z,34.37
2023-04-26T19:57:03.088Z,34.73
2023-04-26T19:59:31.775Z,34.47
2023-04-26T20:02:00.295Z,34.32
2023-04-26T20:04:30.521Z,34.60
2023-04-26T20:06:59.046Z,34.53
2023-04-26T20:09:27.512Z,34.60
2023-04-26T20:11:55.914Z,34.60
2023-04-26T20:14:24.482Z,34.33
2023-04-26T20:16:53.069Z,34.41
2023-04-26T20:19:21.822Z,34.30
2023-04-26T20:21:51.824Z,34.54
2023-04-26T20:24:20.627Z,34.59
2023-04-26T20:26:49.193Z,34.79
2023-04-26T20:29:17.845Z,34.87
2023-04-26T20:31:46.506Z,34.94
2023-04-26T20:34:14.899Z,35.06
2023-04-26T20:36:43.362Z,35.31
2023-04-26T20:39:13.171Z,35.11
2023-04-26T20:41:41.614Z,34.84
2023-04-26T20:44:10.050Z,35.13
2023-04-26T20:46:38.591Z,34.77
2023-04-26T20:49:07.779Z,35.14
2023-04-26T20:51:36.426Z,34.82
2023-04-26T20:54:05.170Z,34.66
2023-04-26T20:56:34.965Z,35.05
2023-04-26T20:59:03.367Z,34.78
2023-04-26T21:01:31.906Z,35.02
2023-04-26T21:04:00.478Z,34.78
2023-04-26T21:06:29.180Z,34.95
2023-04-26T21:08:57.586Z,34.73
2023-04-26T21:11:26.138Z,34.98
2023-04-26T21:13:56.133Z,34.81
2023-04-26T21:16:24.725Z,34.77
2023-04-26T21:18:53.154Z,34.71
2023-04-26T21:21:21.652Z,34.82
2023-04-26T21:23:50.056Z,34.54
2023-04-26T21:26:18.776Z,34.55
2023-04-26T21:28:47.196Z,34.72
2023-04-26T21:31:17.008Z,34.53
2023-04-26T21:33:45.472Z,34.56
2023-04-26T21:36:13.917Z,34.77
2023-04-26T21:38:42.335Z,34.51
2023-04-26T21:41:13.449Z,34.77
2023-04-26T21:43:41.875Z,34.45
2023-04-26T21:46:10.316Z,34.63
2023-04-26T21:48:40.192Z,34.78
2023-04-26T21:51:08.906Z,34.09
2023-04-26T21:53:37.420Z,34.47
2023-04-26T21:56:06.729Z,34.14
2023-04-26T21:58:35.119Z,34.16
2023-04-26T22:01:10.140Z,34.29
2023-04-26T22:03:40.234Z,34.37
2023-04-26T22:06:09.487Z,34.35
2023-04-26T22:08:38.687Z,34.44
2023-04-26T22:11:07.204Z,34.50
2023-04-26T22:13:35.893Z,34.56
2023-04-26T22:16:04.687Z,34.68
2023-04-26T22:18:33.163Z,34.79
2023-04-26T22:21:02.934Z,35.08
2023-04-26T22:23:31.517Z,35.43
2023-04-26T22:26:00.777Z,35.64
2023-04-26T22:28:29.202Z,33.31
2023-04-26T22:30:57.762Z,34.45
2023-04-26T22:33:26.333Z,34.49
2023-04-26T22:35:58.026Z,34.89
2023-04-26T22:38:27.878Z,32.64
2023-04-26T22:40:56.291Z,32.29
2023-04-26T22:43:24.755Z,32.34
2023-04-26T22:45:53.213Z,34.85
2023-04-26T22:48:21.649Z,33.63
2023-04-26T22:50:50.717Z,36.15
2023-04-26T22:53:19.186Z,35.90
2023-04-26T22:55:51.855Z,36.22
2023-04-26T22:58:20.280Z,36.36
2023-04-26T23:00:48.696Z,36.02
2023-04-26T23:03:17.254Z,36.15
2023-04-26T23:05:47.194Z,35.70
2023-04-26T23:08:15.843Z,35.80
2023-04-26T23:10:44.182Z,35.74
2023-04-26T23:13:14.713Z,35.47
2023-04-26T23:15:43.283Z,35.85
2023-04-26T23:18:11.940Z,35.60
2023-04-26T23:20:40.382Z,35.53
2023-04-26T23:23:08.804Z,35.35
2023-04-26T23:25:41.728Z,35.43
2023-04-26T23:28:10.185Z,35.32
2023-04-26T23:30:39.992Z,35.39
2023-04-26T23:33:08.434Z,34.95
2023-04-26T23:35:41.620Z,35.17
2023-04-26T23:38:10.126Z,34.72
2023-04-26T23:40:38.504Z,34.60
2023-04-26T23:43:07.283Z,34.52
2023-04-26T23:45:35.690Z,34.67
2023-04-26T23:48:06.288Z,34.65
2023-04-26T23:50:35.040Z,33.04
2023-04-26T23:53:03.503Z,32.38
2023-04-26T23:55:31.977Z,33.79
2023-04-26T23:58:00.376Z,33.82
